European Causeway — C6RG7 — position and weather

sailwx.info

Track history (hours):
 
Tides and Currents Weather Stations Pressure Air Temp Water Temp Dewpoint Dewpoint Depression Visibility Wind Speed Wind Dir Waves Ship Positions

European Causeway

Operator: P & O Irish Sea

Last reported at 2017-Mar-28 09:33 UTC. Time now 2017-Mar-28 09:56 UTC.
Position N 54°58' W 005°02'.

Length 165 m; draft 5.5 m.

Type: Passenger vessel. MMSI: 311027000.

Date/timePositionNaut miles runAvg speedWind from/ knotsBaromVisibWave heightAir tempDewpointWater temp
2017-Mar-28 09:33N 54°58' W 005°02'1 0.8
2017-Mar-28 08:31N 54°58' W 005°01'1010.5
2017-Mar-28 07:33N 54°58' W 005°19'1817.3
2017-Mar-28 06:31N 54°51' W 005°48'1 0.5
2017-Mar-28 05:32N 54°51' W 005°48'4 3.8
2017-Mar-28 04:34N 54°53' W 005°42'1817.6
2017-Mar-28 03:33N 55°01' W 005°15'8 6.4
2017-Mar-28 02:15N 54°58' W 005°01'0 0.0
2017-Mar-28 01:33N 54°58' W 005°01'5 5.0
2017-Mar-28 00:28N 55°02' W 005°08'1820.1
2017-Mar-27 23:33N 54°54' W 005°37'7 7.0
2017-Mar-27 22:32N 54°51' W 005°48'0 0.0
2017-Mar-27 21:32N 54°51' W 005°48'4 4.0
2017-Mar-27 20:33N 54°53' W 005°42'2411.9
2017-Mar-27 18:32N 54°58' W 005°01'0 0.0
2017-Mar-27 17:33N 54°58' W 005°01'1110.9
2017-Mar-27 16:34N 54°58' W 005°20'1717.3
2017-Mar-27 15:33N 54°51' W 005°48'0 0.2
2017-Mar-27 14:34N 54°51' W 005°48'1111.1
2017-Mar-27 13:33N 54°56' W 005°31'1615.8
2017-Mar-27 12:32N 54°60' W 005°04'2 2.4
2017-Mar-27 11:33N 54°58' W 005°01'1211.8
2017-Mar-27 10:33N 54°58' W 005°21'1716.6
2017-Mar-27 09:34N 54°51' W 005°48'0 0.1
2017-Mar-27 08:32N 54°51' W 005°48'1212.3
2017-Mar-27 07:34N 54°57' W 005°29'1615.1
2017-Mar-27 06:32N 54°59' W 005°03'2 1.5
2017-Mar-27 05:31N 54°58' W 005°01'5 5.5
2017-Mar-27 04:34N 55°02' W 005°07'1817.9
2017-Mar-27 03:33N 54°54' W 005°36'8 7.0
2017-Mar-27 02:28N 54°51' W 005°48'0 0.0
2017-Mar-27 01:31N 54°51' W 005°48'0 0.0
2017-Mar-27 00:28N 54°51' W 005°48'3 3.5
2017-Mar-26 23:33N 54°53' W 005°44'1918.6
2017-Mar-26 22:32N 55°01' W 005°14'8 7.5
2017-Mar-26 21:29N 54°58' W 005°01'5 5.6
2017-Mar-26 20:33N 55°02' W 005°07'1716.8
2017-Mar-26 19:33N 54°54' W 005°33'9 9.1
2017-Mar-26 18:33N 54°51' W 005°48'0 0.0
2017-Mar-26 17:33N 54°51' W 005°48'1313.1
2017-Mar-26 16:33N 54°57' W 005°28'1514.7
2017-Mar-26 15:34N 54°59' W 005°02'1 1.4
2017-Mar-26 14:33N 54°58' W 005°01'6 5.8
2017-Mar-26 13:33N 55°02' W 005°08'1818.0
2017-Mar-26 12:33N 54°54' W 005°37'7 7.0
2017-Mar-26 11:33N 54°51' W 005°48'0 0.0
2017-Mar-26 10:33N 54°51' W 005°48'0 0.0
2017-Mar-26 09:33N 54°51' W 005°48'0 0.0
2017-Mar-26 08:33N 54°51' W 005°48'1413.5
2017-Mar-26 07:33N 54°57' W 005°27'1514.7
2017-Mar-26 06:33N 54°58' W 005°01'0 0.3
2017-Mar-26 05:27N 54°58' W 005°01'0 0.0
2017-Mar-26 04:33N 54°58' W 005°01'0 0.0
2017-Mar-26 03:33N 54°58' W 005°01'0 0.0
2017-Mar-26 02:33N 54°58' W 005°01'0 0.0
2017-Mar-26 01:33N 54°58' W 005°01'0 0.0
2017-Mar-26 00:33N 54°58' W 005°01'0 0.0
2017-Mar-25 23:30N 54°58' W 005°01'0 0.0
2017-Mar-25 22:30N 54°58' W 005°01'5 5.9
2017-Mar-25 21:34N 55°02' W 005°08'1918.5
2017-Mar-25 20:34N 54°54' W 005°37'7 6.8
2017-Mar-25 19:33N 54°51' W 005°48'0 0.0
2017-Mar-25 18:33N 54°51' W 005°48'1110.9
2017-Mar-25 17:34N 54°56' W 005°31'1616.3
2017-Mar-25 16:33N 54°59' W 005°03'2 2.1
2017-Mar-25 15:31N 54°58' W 005°01'1111.1
2017-Mar-25 14:33N 54°58' W 005°20'1817.5
2017-Mar-25 13:33N 54°51' W 005°48'0 0.3
2017-Mar-25 12:33N 54°51' W 005°48'1312.6
2017-Mar-25 11:33N 54°57' W 005°29'1515.1
2017-Mar-25 10:33N 54°59' W 005°03'1 1.4
2017-Mar-25 09:33N 54°58' W 005°01'9 9.3
2017-Mar-25 08:34N 54°59' W 005°17'1716.6
2017-Mar-25 07:33N 54°53' W 005°43'3 3.0
2017-Mar-25 06:31N 54°51' W 005°48'6 6.7
2017-Mar-25 05:33N 54°54' W 005°38'1818.1
2017-Mar-25 04:33N 55°02' W 005°10'7 6.7
2017-Mar-25 03:33N 54°58' W 005°01'0 0.0
2017-Mar-25 02:33N 54°58' W 005°01'5 4.7
2017-Mar-25 01:32N 55°02' W 005°06'1818.4
2017-Mar-25 00:33N 54°54' W 005°35'8 8.0
2017-Mar-24 23:33N 54°51' W 005°48'0 0.0
2017-Mar-24 22:33N 54°51' W 005°48'3 3.4
2017-Mar-24 21:34N 54°53' W 005°43'1918.8
2017-Mar-24 20:33N 55°01' W 005°14'8 7.8
2017-Mar-24 19:33N 54°58' W 005°01'0 0.0
2017-Mar-24 18:34N 54°58' W 005°01'10 9.8
2017-Mar-24 17:33N 54°58' W 005°18'1818.2
2017-Mar-24 16:33N 54°51' W 005°48'0 0.2
2017-Mar-24 15:31N 54°51' W 005°48'1313.8
2017-Mar-24 14:34N 54°57' W 005°28'1514.6
2017-Mar-24 13:33N 54°59' W 005°02'1 1.1
2017-Mar-24 12:33N 54°58' W 005°01'1110.8
2017-Mar-24 11:33N 54°58' W 005°20'1817.6
2017-Mar-24 10:34N 54°51' W 005°48'0 0.5
2017-Mar-24 09:33N 54°51' W 005°48'1414.3
2017-Mar-24 08:33N 54°58' W 005°26'1414.0
2017-Mar-24 07:33N 54°58' W 005°02'1 0.9
2017-Mar-24 06:30N 54°58' W 005°01'5 4.9
2017-Mar-24 05:28N 55°02' W 005°06'1617.8
2017-Mar-24 04:33N 54°55' W 005°32'10 9.8
2017-Mar-24 03:33N 54°51' W 005°48'0 0.0
2017-Mar-24 02:33N 54°51' W 005°48'5 4.6
2017-Mar-24 01:34N 54°53' W 005°41'2020.1
2017-Mar-24 00:33N 55°02' W 005°09'6 6.2
2017-Mar-23 23:34N 54°58' W 005°01'0 0.0
2017-Mar-23 22:30N 54°58' W 005°01'5 5.4
2017-Mar-23 21:30N 55°02' W 005°08'1718.1
2017-Mar-23 20:32N 54°54' W 005°35'8 7.7
2017-Mar-23 19:30N 54°51' W 005°48'0 0.0
2017-Mar-23 18:33N 54°51' W 005°48'1312.6
2017-Mar-23 17:33N 54°57' W 005°29'1515.1
2017-Mar-23 16:33N 54°59' W 005°02'1 1.3
2017-Mar-23 15:33N 54°58' W 005°01'1212.2
2017-Mar-23 14:34N 54°57' W 005°22'1616.1
2017-Mar-23 13:33N 54°51' W 005°48'0 0.0
2017-Mar-23 12:33N 54°51' W 005°48'1414.5
2017-Mar-23 11:33N 54°59' W 005°27'1514.9
2017-Mar-23 10:34N 54°58' W 005°01'0 0.3
2017-Mar-23 09:33N 54°58' W 005°01'9 9.5
2017-Mar-23 08:33N 54°60' W 005°17'2018.8
2017-Mar-23 07:30N 54°51' W 005°48'0 0.1
2017-Mar-23 06:22N 54°51' W 005°48'7 9.2
2017-Mar-23 05:34N 54°55' W 005°37'2016.8
2017-Mar-23 04:23N 54°59' W 005°03'2 2.1
2017-Mar-23 03:25N 54°58' W 005°01'0 0.0
2017-Mar-23 02:31N 54°58' W 005°01'6 5.8
2017-Mar-23 01:33N 55°02' W 005°08'1818.3
2017-Mar-23 00:33N 54°55' W 005°38'7 6.7
2017-Mar-22 23:30N 54°51' W 005°48'0 0.0
2017-Mar-22 22:33N 54°51' W 005°48'3 2.7
2017-Mar-22 21:33N 54°52' W 005°44'1818.4
2017-Mar-22 20:33N 55°00' W 005°15'9 8.2
2017-Mar-22 19:30N 54°58' W 005°01'0 0.0
2017-Mar-22 18:32N 54°58' W 005°01'10 9.9
2017-Mar-22 17:33N 54°59' W 005°18'1918.6
2017-Mar-22 16:33N 54°51' W 005°48'0 0.4
2017-Mar-22 15:33N 54°51' W 005°48'1212.3
2017-Mar-22 14:33N 54°57' W 005°29'1615.7
2017-Mar-22 13:33N 54°58' W 005°02'1 1.0
2017-Mar-22 12:33N 54°58' W 005°01'1010.6
2017-Mar-22 11:33N 54°59' W 005°19'1816.2
2017-Mar-22 10:26N 54°51' W 005°48'0 0.0
2017-Mar-22 09:31N 54°51' W 005°48'1313.5
2017-Mar-22 08:34N 54°57' W 005°28'1613.9
2017-Mar-22 07:26N 54°58' W 005°01'0 0.0
2017-Mar-22 06:33N 54°58' W 005°01'5 4.6
2017-Mar-22 05:29N 55°02' W 005°06'1819.3
2017-Mar-22 04:34N 54°55' W 005°35'8 8.2
2017-Mar-22 03:33N 54°51' W 005°48'0 0.0
2017-Mar-22 02:33N 54°51' W 005°48'5 5.1
2017-Mar-22 01:33N 54°54' W 005°40'1918.5
2017-Mar-22 00:33N 55°03' W 005°12'8 3.6
2017-Mar-21 22:18N 54°58' W 005°01'810.4
2017-Mar-21 21:33N 55°00' W 005°14'2121.0
2017-Mar-21 20:33N 54°52' W 005°47'1 1.0
2017-Mar-21 19:25N 54°51' W 005°48'7 8.2
2017-Mar-21 18:33N 54°54' W 005°37'2018.3
2017-Mar-21 17:27N 54°59' W 005°03'2 2.2
2017-Mar-21 16:29N 54°58' W 005°01'8 9.1
2017-Mar-21 15:34N 54°60' W 005°15'2120.4
2017-Mar-21 14:33N 54°51' W 005°48'0 0.1
2017-Mar-21 13:33N 54°51' W 005°48'0 0.0
2017-Mar-21 12:33N 54°51' W 005°48'1616.4
2017-Mar-21 11:34N 54°58' W 005°23'1312.6
2017-Mar-21 10:33N 54°58' W 005°01'0 0.0
2017-Mar-21 09:27N 54°58' W 005°01'1011.6
2017-Mar-21 08:34N 54°58' W 005°19'1817.0
2017-Mar-21 07:30N 54°51' W 005°48'0 0.2
2017-Mar-21 06:28N 54°51' W 005°48'4 4.9
2017-Mar-21 05:33N 54°53' W 005°42'2019.2
2017-Mar-21 04:31N 55°02' W 005°10'6 6.5
2017-Mar-21 03:31N 54°58' W 005°01'0 0.0
2017-Mar-21 02:31N 54°58' W 005°01'6 5.5
2017-Mar-21 01:31N 55°02' W 005°08'1717.9
2017-Mar-21 00:34N 54°54' W 005°35'8 8.0
2017-Mar-20 23:32N 54°51' W 005°48'0 0.0
2017-Mar-20 22:26N 54°51' W 005°48'5 6.2
2017-Mar-20 21:34N 54°54' W 005°40'1817.7
2017-Mar-20 20:33N 55°01' W 005°12'7 6.8
2017-Mar-20 19:29N 54°58' W 005°01'0 0.0
2017-Mar-20 18:33N 54°58' W 005°01'1312.9
2017-Mar-20 17:33N 54°57' W 005°23'1615.6
2017-Mar-20 16:34N 54°51' W 005°48'0 0.1
2017-Mar-20 15:33N 54°51' W 005°48'1918.7
2017-Mar-20 14:34N 54°59' W 005°19'1010.3
2017-Mar-20 13:33N 54°58' W 005°01'5 4.8
2017-Mar-20 12:33N 55°02' W 005°06'2121.0
2017-Mar-20 11:33N 54°53' W 005°40'5 5.0
2017-Mar-20 10:29N 54°51' W 005°48'4 4.4
2017-Mar-20 09:33N 54°53' W 005°42'2120.9
2017-Mar-20 08:33N 55°02' W 005°09'6 6.1
2017-Mar-20 07:33N 54°58' W 005°01'3 2.8
2017-Mar-20 06:28N 55°00' W 005°04'2 2.6
2017-Mar-20 05:34N 55°02' W 005°07'1615.6
2017-Mar-20 04:33N 54°55' W 005°32'1010.2
2017-Mar-20 03:32N 54°51' W 005°48'0 0.0
2017-Mar-20 02:32N 54°51' W 005°48'0 0.0
2017-Mar-20 01:29N 54°51' W 005°48'5 5.0
2017-Mar-20 00:31N 54°54' W 005°41'1616.4
2017-Mar-19 23:33N 55°00' W 005°16'9 6.9
2017-Mar-19 22:16N 54°58' W 005°01'5 6.5
2017-Mar-19 21:27N 55°01' W 005°07'1718.3
2017-Mar-19 20:31N 54°54' W 005°35'8 8.3
2017-Mar-19 19:30N 54°51' W 005°48'0 0.0
2017-Mar-19 18:33N 54°51' W 005°48'1514.8
2017-Mar-19 17:34N 54°58' W 005°25'1414.0
2017-Mar-19 16:33N 54°58' W 005°01'0 0.0
2017-Mar-19 15:34N 54°58' W 005°01'5 5.0
2017-Mar-19 14:32N 55°01' W 005°07'1717.4
2017-Mar-19 13:33N 54°55' W 005°34'9 8.6
2017-Mar-19 12:33N 54°51' W 005°48'0 0.0
2017-Mar-19 11:21N 54°51' W 005°48'0 0.0
2017-Mar-19 10:33N 54°51' W 005°48'0 0.0
2017-Mar-19 09:33N 54°51' W 005°48'1312.9
2017-Mar-19 08:33N 54°57' W 005°28'1514.3
2017-Mar-19 07:30N 54°58' W 005°02'1 0.7
2017-Mar-19 06:33N 54°58' W 005°01'0 0.0
2017-Mar-19 05:33N 54°58' W 005°01'0 0.0
2017-Mar-19 04:33N 54°58' W 005°01'0 0.0
2017-Mar-19 03:33N 54°58' W 005°01'0 0.0
2017-Mar-19 02:33N 54°58' W 005°01'0 0.0
2017-Mar-19 01:33N 54°58' W 005°01'0 0.0
2017-Mar-19 00:33N 54°58' W 005°01'0 0.0
2017-Mar-18 23:33N 54°58' W 005°01'0 0.0
2017-Mar-18 22:33N 54°58' W 005°01'1010.0
2017-Mar-18 21:33N 54°59' W 005°18'1918.6
2017-Mar-18 20:34N 54°51' W 005°48'0 0.1
2017-Mar-18 19:33N 54°51' W 005°48'0 0.0
2017-Mar-18 18:33N 54°51' W 005°48'1111.5
2017-Mar-18 17:34N 54°56' W 005°31'1616.0
2017-Mar-18 16:33N 54°59' W 005°03'2 1.8
2017-Mar-18 15:33N 54°58' W 005°01'10 9.7
2017-Mar-18 14:34N 54°59' W 005°18'1817.8
2017-Mar-18 13:33N 54°52' W 005°46'2 1.6
2017-Mar-18 12:33N 54°51' W 005°48'1313.0
2017-Mar-18 11:34N 54°57' W 005°28'1514.8
2017-Mar-18 10:33N 54°59' W 005°03'1 1.5
2017-Mar-18 09:34N 54°58' W 005°01'  
Track history (hours):
 
Tides and Currents Weather Stations Pressure Air Temp Water Temp Dewpoint Dewpoint Depression Visibility Wind Speed Wind Dir Waves Ship Positions

European Causeway

Operator: P & O Irish Sea

Last reported at 2017-Mar-28 09:33 UTC. Time now 2017-Mar-28 09:56 UTC.
Position N 54°58' W 005°02'.

Length 165 m; draft 5.5 m.

Type: Passenger vessel. MMSI: 311027000.

Date/timePositionNaut miles runAvg speedWind from/ knotsBaromVisibWave heightAir tempDewpointWater temp
2017-Mar-28 09:33N 54°58' W 005°02'1 0.8
2017-Mar-28 08:31N 54°58' W 005°01'1010.5
2017-Mar-28 07:33N 54°58' W 005°19'1817.3
2017-Mar-28 06:31N 54°51' W 005°48'1 0.5
2017-Mar-28 05:32N 54°51' W 005°48'4 3.8
2017-Mar-28 04:34N 54°53' W 005°42'1817.6
2017-Mar-28 03:33N 55°01' W 005°15'8 6.4
2017-Mar-28 02:15N 54°58' W 005°01'0 0.0
2017-Mar-28 01:33N 54°58' W 005°01'5 5.0
2017-Mar-28 00:28N 55°02' W 005°08'1820.1
2017-Mar-27 23:33N 54°54' W 005°37'7 7.0
2017-Mar-27 22:32N 54°51' W 005°48'0 0.0
2017-Mar-27 21:32N 54°51' W 005°48'4 4.0
2017-Mar-27 20:33N 54°53' W 005°42'2411.9
2017-Mar-27 18:32N 54°58' W 005°01'0 0.0
2017-Mar-27 17:33N 54°58' W 005°01'1110.9
2017-Mar-27 16:34N 54°58' W 005°20'1717.3
2017-Mar-27 15:33N 54°51' W 005°48'0 0.2
2017-Mar-27 14:34N 54°51' W 005°48'1111.1
2017-Mar-27 13:33N 54°56' W 005°31'1615.8
2017-Mar-27 12:32N 54°60' W 005°04'2 2.4
2017-Mar-27 11:33N 54°58' W 005°01'1211.8
2017-Mar-27 10:33N 54°58' W 005°21'1716.6
2017-Mar-27 09:34N 54°51' W 005°48'0 0.1
2017-Mar-27 08:32N 54°51' W 005°48'1212.3
2017-Mar-27 07:34N 54°57' W 005°29'1615.1
2017-Mar-27 06:32N 54°59' W 005°03'2 1.5
2017-Mar-27 05:31N 54°58' W 005°01'5 5.5
2017-Mar-27 04:34N 55°02' W 005°07'1817.9
2017-Mar-27 03:33N 54°54' W 005°36'8 7.0
2017-Mar-27 02:28N 54°51' W 005°48'0 0.0
2017-Mar-27 01:31N 54°51' W 005°48'0 0.0
2017-Mar-27 00:28N 54°51' W 005°48'3 3.5
2017-Mar-26 23:33N 54°53' W 005°44'1918.6
2017-Mar-26 22:32N 55°01' W 005°14'8 7.5
2017-Mar-26 21:29N 54°58' W 005°01'5 5.6
2017-Mar-26 20:33N 55°02' W 005°07'1716.8
2017-Mar-26 19:33N 54°54' W 005°33'9 9.1
2017-Mar-26 18:33N 54°51' W 005°48'0 0.0
2017-Mar-26 17:33N 54°51' W 005°48'1313.1
2017-Mar-26 16:33N 54°57' W 005°28'1514.7
2017-Mar-26 15:34N 54°59' W 005°02'1 1.4
2017-Mar-26 14:33N 54°58' W 005°01'6 5.8
2017-Mar-26 13:33N 55°02' W 005°08'1818.0
2017-Mar-26 12:33N 54°54' W 005°37'7 7.0
2017-Mar-26 11:33N 54°51' W 005°48'0 0.0
2017-Mar-26 10:33N 54°51' W 005°48'0 0.0
2017-Mar-26 09:33N 54°51' W 005°48'0 0.0
2017-Mar-26 08:33N 54°51' W 005°48'1413.5
2017-Mar-26 07:33N 54°57' W 005°27'1514.7
2017-Mar-26 06:33N 54°58' W 005°01'0 0.3
2017-Mar-26 05:27N 54°58' W 005°01'0 0.0
2017-Mar-26 04:33N 54°58' W 005°01'0 0.0
2017-Mar-26 03:33N 54°58' W 005°01'0 0.0
2017-Mar-26 02:33N 54°58' W 005°01'0 0.0
2017-Mar-26 01:33N 54°58' W 005°01'0 0.0
2017-Mar-26 00:33N 54°58' W 005°01'0 0.0
2017-Mar-25 23:30N 54°58' W 005°01'0 0.0
2017-Mar-25 22:30N 54°58' W 005°01'5 5.9
2017-Mar-25 21:34N 55°02' W 005°08'1918.5
2017-Mar-25 20:34N 54°54' W 005°37'7 6.8
2017-Mar-25 19:33N 54°51' W 005°48'0 0.0
2017-Mar-25 18:33N 54°51' W 005°48'1110.9
2017-Mar-25 17:34N 54°56' W 005°31'1616.3
2017-Mar-25 16:33N 54°59' W 005°03'2 2.1
2017-Mar-25 15:31N 54°58' W 005°01'1111.1
2017-Mar-25 14:33N 54°58' W 005°20'1817.5
2017-Mar-25 13:33N 54°51' W 005°48'0 0.3
2017-Mar-25 12:33N 54°51' W 005°48'1312.6
2017-Mar-25 11:33N 54°57' W 005°29'1515.1
2017-Mar-25 10:33N 54°59' W 005°03'1 1.4
2017-Mar-25 09:33N 54°58' W 005°01'9 9.3
2017-Mar-25 08:34N 54°59' W 005°17'1716.6
2017-Mar-25 07:33N 54°53' W 005°43'3 3.0
2017-Mar-25 06:31N 54°51' W 005°48'6 6.7
2017-Mar-25 05:33N 54°54' W 005°38'1818.1
2017-Mar-25 04:33N 55°02' W 005°10'7 6.7
2017-Mar-25 03:33N 54°58' W 005°01'0 0.0
2017-Mar-25 02:33N 54°58' W 005°01'5 4.7
2017-Mar-25 01:32N 55°02' W 005°06'1818.4
2017-Mar-25 00:33N 54°54' W 005°35'8 8.0
2017-Mar-24 23:33N 54°51' W 005°48'0 0.0
2017-Mar-24 22:33N 54°51' W 005°48'3 3.4
2017-Mar-24 21:34N 54°53' W 005°43'1918.8
2017-Mar-24 20:33N 55°01' W 005°14'8 7.8
2017-Mar-24 19:33N 54°58' W 005°01'0 0.0
2017-Mar-24 18:34N 54°58' W 005°01'10 9.8
2017-Mar-24 17:33N 54°58' W 005°18'1818.2
2017-Mar-24 16:33N 54°51' W 005°48'0 0.2
2017-Mar-24 15:31N 54°51' W 005°48'1313.8
2017-Mar-24 14:34N 54°57' W 005°28'1514.6
2017-Mar-24 13:33N 54°59' W 005°02'1 1.1
2017-Mar-24 12:33N 54°58' W 005°01'1110.8
2017-Mar-24 11:33N 54°58' W 005°20'1817.6
2017-Mar-24 10:34N 54°51' W 005°48'0 0.5
2017-Mar-24 09:33N 54°51' W 005°48'1414.3
2017-Mar-24 08:33N 54°58' W 005°26'1414.0
2017-Mar-24 07:33N 54°58' W 005°02'1 0.9
2017-Mar-24 06:30N 54°58' W 005°01'5 4.9
2017-Mar-24 05:28N 55°02' W 005°06'1617.8
2017-Mar-24 04:33N 54°55' W 005°32'10 9.8
2017-Mar-24 03:33N 54°51' W 005°48'0 0.0
2017-Mar-24 02:33N 54°51' W 005°48'5 4.6
2017-Mar-24 01:34N 54°53' W 005°41'2020.1
2017-Mar-24 00:33N 55°02' W 005°09'6 6.2
2017-Mar-23 23:34N 54°58' W 005°01'0 0.0
2017-Mar-23 22:30N 54°58' W 005°01'5 5.4
2017-Mar-23 21:30N 55°02' W 005°08'1718.1
2017-Mar-23 20:32N 54°54' W 005°35'8 7.7
2017-Mar-23 19:30N 54°51' W 005°48'0 0.0
2017-Mar-23 18:33N 54°51' W 005°48'1312.6
2017-Mar-23 17:33N 54°57' W 005°29'1515.1
2017-Mar-23 16:33N 54°59' W 005°02'1 1.3
2017-Mar-23 15:33N 54°58' W 005°01'1212.2
2017-Mar-23 14:34N 54°57' W 005°22'1616.1
2017-Mar-23 13:33N 54°51' W 005°48'0 0.0
2017-Mar-23 12:33N 54°51' W 005°48'1414.5
2017-Mar-23 11:33N 54°59' W 005°27'1514.9
2017-Mar-23 10:34N 54°58' W 005°01'0 0.3
2017-Mar-23 09:33N 54°58' W 005°01'9 9.5
2017-Mar-23 08:33N 54°60' W 005°17'2018.8
2017-Mar-23 07:30N 54°51' W 005°48'0 0.1
2017-Mar-23 06:22N 54°51' W 005°48'7 9.2
2017-Mar-23 05:34N 54°55' W 005°37'2016.8
2017-Mar-23 04:23N 54°59' W 005°03'2 2.1
2017-Mar-23 03:25N 54°58' W 005°01'0 0.0
2017-Mar-23 02:31N 54°58' W 005°01'6 5.8
2017-Mar-23 01:33N 55°02' W 005°08'1818.3
2017-Mar-23 00:33N 54°55' W 005°38'7 6.7
2017-Mar-22 23:30N 54°51' W 005°48'0 0.0
2017-Mar-22 22:33N 54°51' W 005°48'3 2.7
2017-Mar-22 21:33N 54°52' W 005°44'1818.4
2017-Mar-22 20:33N 55°00' W 005°15'9 8.2
2017-Mar-22 19:30N 54°58' W 005°01'0 0.0
2017-Mar-22 18:32N 54°58' W 005°01'10 9.9
2017-Mar-22 17:33N 54°59' W 005°18'1918.6
2017-Mar-22 16:33N 54°51' W 005°48'0 0.4
2017-Mar-22 15:33N 54°51' W 005°48'1212.3
2017-Mar-22 14:33N 54°57' W 005°29'1615.7
2017-Mar-22 13:33N 54°58' W 005°02'1 1.0
2017-Mar-22 12:33N 54°58' W 005°01'1010.6
2017-Mar-22 11:33N 54°59' W 005°19'1816.2
2017-Mar-22 10:26N 54°51' W 005°48'0 0.0
2017-Mar-22 09:31N 54°51' W 005°48'1313.5
2017-Mar-22 08:34N 54°57' W 005°28'1613.9
2017-Mar-22 07:26N 54°58' W 005°01'0 0.0
2017-Mar-22 06:33N 54°58' W 005°01'5 4.6
2017-Mar-22 05:29N 55°02' W 005°06'1819.3
2017-Mar-22 04:34N 54°55' W 005°35'8 8.2
2017-Mar-22 03:33N 54°51' W 005°48'0 0.0
2017-Mar-22 02:33N 54°51' W 005°48'5 5.1
2017-Mar-22 01:33N 54°54' W 005°40'1918.5
2017-Mar-22 00:33N 55°03' W 005°12'8 3.6
2017-Mar-21 22:18N 54°58' W 005°01'810.4
2017-Mar-21 21:33N 55°00' W 005°14'2121.0
2017-Mar-21 20:33N 54°52' W 005°47'1 1.0
2017-Mar-21 19:25N 54°51' W 005°48'7 8.2
2017-Mar-21 18:33N 54°54' W 005°37'2018.3
2017-Mar-21 17:27N 54°59' W 005°03'2 2.2
2017-Mar-21 16:29N 54°58' W 005°01'8 9.1
2017-Mar-21 15:34N 54°60' W 005°15'2120.4
2017-Mar-21 14:33N 54°51' W 005°48'0 0.1
2017-Mar-21 13:33N 54°51' W 005°48'0 0.0
2017-Mar-21 12:33N 54°51' W 005°48'1616.4
2017-Mar-21 11:34N 54°58' W 005°23'1312.6
2017-Mar-21 10:33N 54°58' W 005°01'0 0.0
2017-Mar-21 09:27N 54°58' W 005°01'1011.6
2017-Mar-21 08:34N 54°58' W 005°19'1817.0
2017-Mar-21 07:30N 54°51' W 005°48'0 0.2
2017-Mar-21 06:28N 54°51' W 005°48'4 4.9
2017-Mar-21 05:33N 54°53' W 005°42'2019.2
2017-Mar-21 04:31N 55°02' W 005°10'6 6.5
2017-Mar-21 03:31N 54°58' W 005°01'0 0.0
2017-Mar-21 02:31N 54°58' W 005°01'6 5.5
2017-Mar-21 01:31N 55°02' W 005°08'1717.9
2017-Mar-21 00:34N 54°54' W 005°35'8 8.0
2017-Mar-20 23:32N 54°51' W 005°48'0 0.0
2017-Mar-20 22:26N 54°51' W 005°48'5 6.2
2017-Mar-20 21:34N 54°54' W 005°40'1817.7
2017-Mar-20 20:33N 55°01' W 005°12'7 6.8
2017-Mar-20 19:29N 54°58' W 005°01'0 0.0
2017-Mar-20 18:33N 54°58' W 005°01'1312.9
2017-Mar-20 17:33N 54°57' W 005°23'1615.6
2017-Mar-20 16:34N 54°51' W 005°48'0 0.1
2017-Mar-20 15:33N 54°51' W 005°48'1918.7
2017-Mar-20 14:34N 54°59' W 005°19'1010.3
2017-Mar-20 13:33N 54°58' W 005°01'5 4.8
2017-Mar-20 12:33N 55°02' W 005°06'2121.0
2017-Mar-20 11:33N 54°53' W 005°40'5 5.0
2017-Mar-20 10:29N 54°51' W 005°48'4 4.4
2017-Mar-20 09:33N 54°53' W 005°42'2120.9
2017-Mar-20 08:33N 55°02' W 005°09'6 6.1
2017-Mar-20 07:33N 54°58' W 005°01'3 2.8
2017-Mar-20 06:28N 55°00' W 005°04'2 2.6
2017-Mar-20 05:34N 55°02' W 005°07'1615.6
2017-Mar-20 04:33N 54°55' W 005°32'1010.2
2017-Mar-20 03:32N 54°51' W 005°48'0 0.0
2017-Mar-20 02:32N 54°51' W 005°48'0 0.0
2017-Mar-20 01:29N 54°51' W 005°48'5 5.0
2017-Mar-20 00:31N 54°54' W 005°41'1616.4
2017-Mar-19 23:33N 55°00' W 005°16'9 6.9
2017-Mar-19 22:16N 54°58' W 005°01'5 6.5
2017-Mar-19 21:27N 55°01' W 005°07'1718.3
2017-Mar-19 20:31N 54°54' W 005°35'8 8.3
2017-Mar-19 19:30N 54°51' W 005°48'0 0.0
2017-Mar-19 18:33N 54°51' W 005°48'1514.8
2017-Mar-19 17:34N 54°58' W 005°25'1414.0
2017-Mar-19 16:33N 54°58' W 005°01'0 0.0
2017-Mar-19 15:34N 54°58' W 005°01'5 5.0
2017-Mar-19 14:32N 55°01' W 005°07'1717.4
2017-Mar-19 13:33N 54°55' W 005°34'9 8.6
2017-Mar-19 12:33N 54°51' W 005°48'0 0.0
2017-Mar-19 11:21N 54°51' W 005°48'0 0.0
2017-Mar-19 10:33N 54°51' W 005°48'0 0.0
2017-Mar-19 09:33N 54°51' W 005°48'1312.9
2017-Mar-19 08:33N 54°57' W 005°28'1514.3
2017-Mar-19 07:30N 54°58' W 005°02'1 0.7
2017-Mar-19 06:33N 54°58' W 005°01'0 0.0
2017-Mar-19 05:33N 54°58' W 005°01'0 0.0
2017-Mar-19 04:33N 54°58' W 005°01'0 0.0
2017-Mar-19 03:33N 54°58' W 005°01'0 0.0
2017-Mar-19 02:33N 54°58' W 005°01'0 0.0
2017-Mar-19 01:33N 54°58' W 005°01'0 0.0
2017-Mar-19 00:33N 54°58' W 005°01'0 0.0
2017-Mar-18 23:33N 54°58' W 005°01'0 0.0
2017-Mar-18 22:33N 54°58' W 005°01'1010.0
2017-Mar-18 21:33N 54°59' W 005°18'1918.6
2017-Mar-18 20:34N 54°51' W 005°48'0 0.1
2017-Mar-18 19:33N 54°51' W 005°48'0 0.0
2017-Mar-18 18:33N 54°51' W 005°48'1111.5
2017-Mar-18 17:34N 54°56' W 005°31'1616.0
2017-Mar-18 16:33N 54°59' W 005°03'2 1.8
2017-Mar-18 15:33N 54°58' W 005°01'10 9.7
2017-Mar-18 14:34N 54°59' W 005°18'1817.8
2017-Mar-18 13:33N 54°52' W 005°46'2 1.6
2017-Mar-18 12:33N 54°51' W 005°48'1313.0
2017-Mar-18 11:34N 54°57' W 005°28'1514.8
2017-Mar-18 10:33N 54°59' W 005°03'1 1.5
2017-Mar-18 09:34N 54°58' W 005°01'  

Dump ship's entire track history